sensor_id;sensor_type;location;lat;lon;timestamp;P1;durP1;ratioP1;P2;durP2;ratioP2
61869;SDS011;47810;42.264;23.826;2024-02-26T00:00:37;13.10;;;5.93;;
61869;SDS011;47810;42.264;23.826;2024-02-26T00:05:49;6.97;;;4.47;;
61869;SDS011;47810;42.264;23.826;2024-02-26T00:08:21;11.20;;;6.28;;
61869;SDS011;47810;42.264;23.826;2024-02-26T00:16:42;12.10;;;5.32;;
61869;SDS011;47810;42.264;23.826;2024-02-26T00:19:20;10.10;;;5.60;;
61869;SDS011;47810;42.264;23.826;2024-02-26T00:21:56;9.50;;;5.88;;
61869;SDS011;47810;42.264;23.826;2024-02-26T00:24:31;12.38;;;5.22;;
61869;SDS011;47810;42.264;23.826;2024-02-26T00:35:07;9.52;;;6.60;;
61869;SDS011;47810;42.264;23.826;2024-02-26T00:43:45;11.77;;;5.68;;
61869;SDS011;47810;42.264;23.826;2024-02-26T00:46:11;8.63;;;5.13;;
61869;SDS011;47810;42.264;23.826;2024-02-26T00:48:47;9.00;;;5.50;;
61869;SDS011;47810;42.264;23.826;2024-02-26T00:56:21;10.23;;;6.38;;
61869;SDS011;47810;42.264;23.826;2024-02-26T01:01:36;7.60;;;6.05;;
61869;SDS011;47810;42.264;23.826;2024-02-26T01:04:03;10.75;;;5.95;;
61869;SDS011;47810;42.264;23.826;2024-02-26T01:06:41;12.13;;;6.07;;
61869;SDS011;47810;42.264;23.826;2024-02-26T01:11:40;9.57;;;6.13;;
61869;SDS011;47810;42.264;23.826;2024-02-26T01:14:12;11.13;;;7.10;;
61869;SDS011;47810;42.264;23.826;2024-02-26T01:19:27;11.90;;;6.90;;
61869;SDS011;47810;42.264;23.826;2024-02-26T01:21:59;6.57;;;5.30;;
61869;SDS011;47810;42.264;23.826;2024-02-26T01:24:29;12.35;;;5.85;;
61869;SDS011;47810;42.264;23.826;2024-02-26T01:27:03;12.20;;;6.03;;
61869;SDS011;47810;42.264;23.826;2024-02-26T01:32:04;12.85;;;5.78;;
61869;SDS011;47810;42.264;23.826;2024-02-26T01:37:09;5.38;;;3.35;;
61869;SDS011;47810;42.264;23.826;2024-02-26T01:39:40;8.18;;;4.55;;
61869;SDS011;47810;42.264;23.826;2024-02-26T01:42:16;19.90;;;5.38;;
61869;SDS011;47810;42.264;23.826;2024-02-26T01:44:48;7.35;;;5.00;;
61869;SDS011;47810;42.264;23.826;2024-02-26T01:47:21;8.05;;;5.43;;
61869;SDS011;47810;42.264;23.826;2024-02-26T01:52:21;6.55;;;4.55;;
61869;SDS011;47810;42.264;23.826;2024-02-26T01:54:53;8.75;;;4.53;;
61869;SDS011;47810;42.264;23.826;2024-02-26T01:57:27;8.00;;;4.22;;
61869;SDS011;47810;42.264;23.826;2024-02-26T01:59:53;6.32;;;4.65;;
61869;SDS011;47810;42.264;23.826;2024-02-26T02:02:23;6.18;;;4.25;;
61869;SDS011;47810;42.264;23.826;2024-02-26T02:07:33;10.57;;;5.50;;
61869;SDS011;47810;42.264;23.826;2024-02-26T02:12:43;8.75;;;5.28;;
61869;SDS011;47810;42.264;23.826;2024-02-26T02:17:49;9.52;;;4.82;;
61869;SDS011;47810;42.264;23.826;2024-02-26T02:20:17;8.93;;;5.78;;
61869;SDS011;47810;42.264;23.826;2024-02-26T02:22:53;8.80;;;5.57;;
61869;SDS011;47810;42.264;23.826;2024-02-26T02:25:25;9.35;;;4.68;;
61869;SDS011;47810;42.264;23.826;2024-02-26T02:27:53;4.90;;;4.47;;
61869;SDS011;47810;42.264;23.826;2024-02-26T02:30:29;8.95;;;4.65;;
61869;SDS011;47810;42.264;23.826;2024-02-26T02:32:56;6.32;;;4.80;;
61869;SDS011;47810;42.264;23.826;2024-02-26T02:35:35;5.55;;;4.97;;
61869;SDS011;47810;42.264;23.826;2024-02-26T02:38:06;6.75;;;4.25;;
61869;SDS011;47810;42.264;23.826;2024-02-26T02:40:43;10.45;;;5.32;;
61869;SDS011;47810;42.264;23.826;2024-02-26T02:43:08;6.60;;;4.63;;
61869;SDS011;47810;42.264;23.826;2024-02-26T02:45:40;8.57;;;5.82;;
61869;SDS011;47810;42.264;23.826;2024-02-26T02:48:13;8.43;;;5.30;;
61869;SDS011;47810;42.264;23.826;2024-02-26T03:00:57;8.60;;;4.95;;
61869;SDS011;47810;42.264;23.826;2024-02-26T03:06:02;8.50;;;5.72;;
61869;SDS011;47810;42.264;23.826;2024-02-26T03:08:36;6.95;;;6.13;;
61869;SDS011;47810;42.264;23.826;2024-02-26T03:11:05;9.35;;;6.22;;
61869;SDS011;47810;42.264;23.826;2024-02-26T03:13:38;7.90;;;5.45;;
61869;SDS011;47810;42.264;23.826;2024-02-26T03:21:09;16.35;;;7.38;;
61869;SDS011;47810;42.264;23.826;2024-02-26T03:23:34;10.75;;;6.15;;
61869;SDS011;47810;42.264;23.826;2024-02-26T03:26:18;12.52;;;6.60;;
61869;SDS011;47810;42.264;23.826;2024-02-26T03:31:20;10.10;;;5.68;;
61869;SDS011;47810;42.264;23.826;2024-02-26T03:33:55;7.28;;;4.80;;
61869;SDS011;47810;42.264;23.826;2024-02-26T03:36:22;17.10;;;7.50;;
61869;SDS011;47810;42.264;23.826;2024-02-26T03:41:24;13.55;;;6.93;;
61869;SDS011;47810;42.264;23.826;2024-02-26T03:49:01;9.73;;;5.93;;
61869;SDS011;47810;42.264;23.826;2024-02-26T03:54:15;6.90;;;5.15;;
61869;SDS011;47810;42.264;23.826;2024-02-26T03:59:18;3.70;;;3.03;;
61869;SDS011;47810;42.264;23.826;2024-02-26T04:01:49;6.65;;;4.30;;
61869;SDS011;47810;42.264;23.826;2024-02-26T04:04:15;5.32;;;3.58;;
61869;SDS011;47810;42.264;23.826;2024-02-26T04:06:57;7.57;;;4.57;;
61869;SDS011;47810;42.264;23.826;2024-02-26T04:09:25;10.48;;;4.65;;
61869;SDS011;47810;42.264;23.826;2024-02-26T04:14:30;9.55;;;4.90;;
61869;SDS011;47810;42.264;23.826;2024-02-26T04:17:04;8.27;;;4.03;;
61869;SDS011;47810;42.264;23.826;2024-02-26T04:19:35;8.88;;;5.35;;
61869;SDS011;47810;42.264;23.826;2024-02-26T04:22:02;10.00;;;5.25;;
61869;SDS011;47810;42.264;23.826;2024-02-26T04:24:42;10.43;;;5.40;;
61869;SDS011;47810;42.264;23.826;2024-02-26T04:29:44;6.15;;;3.92;;
61869;SDS011;47810;42.264;23.826;2024-02-26T04:32:15;7.75;;;6.00;;
61869;SDS011;47810;42.264;23.826;2024-02-26T04:34:51;9.05;;;5.63;;
61869;SDS011;47810;42.264;23.826;2024-02-26T04:37:23;9.45;;;4.70;;
61869;SDS011;47810;42.264;23.826;2024-02-26T04:42:23;3.22;;;2.17;;
61869;SDS011;47810;42.264;23.826;2024-02-26T04:47:25;1.13;;;0.90;;
61869;SDS011;47810;42.264;23.826;2024-02-26T04:55:00;4.28;;;2.80;;
61869;SDS011;47810;42.264;23.826;2024-02-26T04:57:42;5.15;;;2.95;;
61869;SDS011;47810;42.264;23.826;2024-02-26T05:00:14;3.05;;;2.72;;
61869;SDS011;47810;42.264;23.826;2024-02-26T05:07:50;14.73;;;2.13;;
61869;SDS011;47810;42.264;23.826;2024-02-26T05:12:55;4.72;;;2.65;;
61869;SDS011;47810;42.264;23.826;2024-02-26T05:18:00;4.40;;;2.88;;
61869;SDS011;47810;42.264;23.826;2024-02-26T05:20:28;5.07;;;2.47;;
61869;SDS011;47810;42.264;23.826;2024-02-26T05:23:01;5.47;;;3.17;;
61869;SDS011;47810;42.264;23.826;2024-02-26T05:33:57;8.85;;;4.72;;
61869;SDS011;47810;42.264;23.826;2024-02-26T05:39:11;10.80;;;5.47;;
61869;SDS011;47810;42.264;23.826;2024-02-26T05:57:41;7.15;;;4.70;;
61869;SDS011;47810;42.264;23.826;2024-02-26T06:00:15;4.80;;;3.45;;
61869;SDS011;47810;42.264;23.826;2024-02-26T06:06:00;13.32;;;7.03;;
61869;SDS011;47810;42.264;23.826;2024-02-26T06:13:46;6.32;;;4.30;;
61869;SDS011;47810;42.264;23.826;2024-02-26T06:16:21;9.38;;;6.00;;
61869;SDS011;47810;42.264;23.826;2024-02-26T06:46:27;8.30;;;5.68;;
61869;SDS011;47810;42.264;23.826;2024-02-26T06:48:59;12.15;;;6.32;;
61869;SDS011;47810;42.264;23.826;2024-02-26T06:54:25;35.03;;;16.65;;
61869;SDS011;47810;42.264;23.826;2024-02-26T06:57:00;23.50;;;11.70;;
61869;SDS011;47810;42.264;23.826;2024-02-26T06:59:26;36.13;;;16.00;;
61869;SDS011;47810;42.264;23.826;2024-02-26T07:02:00;16.52;;;9.90;;
61869;SDS011;47810;42.264;23.826;2024-02-26T07:04:32;18.92;;;10.57;;
61869;SDS011;47810;42.264;23.826;2024-02-26T07:09:41;25.67;;;17.08;;
61869;SDS011;47810;42.264;23.826;2024-02-26T07:12:09;20.80;;;15.15;;
61869;SDS011;47810;42.264;23.826;2024-02-26T07:17:13;33.00;;;15.27;;
61869;SDS011;47810;42.264;23.826;2024-02-26T07:24:50;22.80;;;12.48;;
61869;SDS011;47810;42.264;23.826;2024-02-26T07:27:21;24.17;;;15.73;;
61869;SDS011;47810;42.264;23.826;2024-02-26T07:29:54;34.85;;;18.85;;
61869;SDS011;47810;42.264;23.826;2024-02-26T07:32:27;32.78;;;19.73;;
61869;SDS011;47810;42.264;23.826;2024-02-26T07:34:59;24.30;;;11.15;;
61869;SDS011;47810;42.264;23.826;2024-02-26T07:37:36;79.10;;;36.47;;
61869;SDS011;47810;42.264;23.826;2024-02-26T07:40:04;38.15;;;19.48;;
61869;SDS011;47810;42.264;23.826;2024-02-26T07:42:36;28.65;;;17.88;;
61869;SDS011;47810;42.264;23.826;2024-02-26T07:47:45;30.23;;;19.63;;
61869;SDS011;47810;42.264;23.826;2024-02-26T07:54:02;32.05;;;14.40;;
61869;SDS011;47810;42.264;23.826;2024-02-26T07:57:17;10.63;;;8.88;;
61869;SDS011;47810;42.264;23.826;2024-02-26T08:00:07;23.80;;;12.02;;
61869;SDS011;47810;42.264;23.826;2024-02-26T08:02:34;19.95;;;12.05;;
61869;SDS011;47810;42.264;23.826;2024-02-26T08:19:46;10.70;;;6.75;;
61869;SDS011;47810;42.264;23.826;2024-02-26T08:36:06;15.07;;;6.80;;
61869;SDS011;47810;42.264;23.826;2024-02-26T08:41:50;9.38;;;6.55;;
61869;SDS011;47810;42.264;23.826;2024-02-26T09:01:22;11.20;;;5.88;;
61869;SDS011;47810;42.264;23.826;2024-02-26T09:03:49;10.93;;;7.47;;
61869;SDS011;47810;42.264;23.826;2024-02-26T09:06:22;10.55;;;6.70;;
61869;SDS011;47810;42.264;23.826;2024-02-26T09:08:53;5.20;;;3.85;;
61869;SDS011;47810;42.264;23.826;2024-02-26T09:11:24;15.45;;;7.88;;
61869;SDS011;47810;42.264;23.826;2024-02-26T09:13:57;12.18;;;7.00;;
61869;SDS011;47810;42.264;23.826;2024-02-26T09:24:45;12.98;;;7.13;;
61869;SDS011;47810;42.264;23.826;2024-02-26T09:30:10;10.38;;;6.05;;
61869;SDS011;47810;42.264;23.826;2024-02-26T09:39:21;7.72;;;3.88;;
61869;SDS011;47810;42.264;23.826;2024-02-26T09:41:52;9.90;;;4.85;;
61869;SDS011;47810;42.264;23.826;2024-02-26T09:44:19;10.02;;;5.05;;
61869;SDS011;47810;42.264;23.826;2024-02-26T09:49:42;5.68;;;3.47;;
61869;SDS011;47810;42.264;23.826;2024-02-26T09:52:11;6.63;;;4.53;;
61869;SDS011;47810;42.264;23.826;2024-02-26T09:54:38;7.97;;;4.68;;
61869;SDS011;47810;42.264;23.826;2024-02-26T09:57:09;7.05;;;4.88;;
61869;SDS011;47810;42.264;23.826;2024-02-26T09:59:50;5.60;;;3.72;;
61869;SDS011;47810;42.264;23.826;2024-02-26T10:02:19;6.25;;;3.60;;
61869;SDS011;47810;42.264;23.826;2024-02-26T10:04:50;5.47;;;3.33;;
61869;SDS011;47810;42.264;23.826;2024-02-26T10:07:22;5.22;;;3.40;;
61869;SDS011;47810;42.264;23.826;2024-02-26T10:12:17;4.55;;;3.25;;
61869;SDS011;47810;42.264;23.826;2024-02-26T10:14:50;7.28;;;4.45;;
61869;SDS011;47810;42.264;23.826;2024-02-26T10:20:13;8.40;;;3.80;;
61869;SDS011;47810;42.264;23.826;2024-02-26T10:22:42;11.45;;;6.25;;
61869;SDS011;47810;42.264;23.826;2024-02-26T10:34:57;5.38;;;3.50;;
61869;SDS011;47810;42.264;23.826;2024-02-26T10:37:31;7.30;;;3.85;;
61869;SDS011;47810;42.264;23.826;2024-02-26T10:40:15;7.05;;;3.63;;
61869;SDS011;47810;42.264;23.826;2024-02-26T10:42:50;8.52;;;4.15;;
61869;SDS011;47810;42.264;23.826;2024-02-26T10:45:15;6.13;;;3.88;;
61869;SDS011;47810;42.264;23.826;2024-02-26T10:55:29;5.75;;;3.28;;
61869;SDS011;47810;42.264;23.826;2024-02-26T10:58:00;6.53;;;3.75;;
61869;SDS011;47810;42.264;23.826;2024-02-26T11:00:36;9.02;;;5.10;;
61869;SDS011;47810;42.264;23.826;2024-02-26T11:03:06;5.82;;;3.40;;
61869;SDS011;47810;42.264;23.826;2024-02-26T11:10:37;8.75;;;3.22;;
61869;SDS011;47810;42.264;23.826;2024-02-26T11:13:17;7.15;;;4.03;;
61869;SDS011;47810;42.264;23.826;2024-02-26T11:15:52;5.43;;;3.30;;
61869;SDS011;47810;42.264;23.826;2024-02-26T11:23:25;5.97;;;3.78;;
61869;SDS011;47810;42.264;23.826;2024-02-26T11:53:47;7.28;;;4.25;;
61869;SDS011;47810;42.264;23.826;2024-02-26T11:58:45;6.82;;;3.92;;
61869;SDS011;47810;42.264;23.826;2024-02-26T12:14:11;5.10;;;2.58;;
61869;SDS011;47810;42.264;23.826;2024-02-26T12:16:48;10.70;;;3.70;;
61869;SDS011;47810;42.264;23.826;2024-02-26T12:29:29;5.93;;;2.55;;
61869;SDS011;47810;42.264;23.826;2024-02-26T12:34:32;4.45;;;2.25;;
61869;SDS011;47810;42.264;23.826;2024-02-26T12:39:39;4.82;;;3.17;;
61869;SDS011;47810;42.264;23.826;2024-02-26T12:42:08;4.78;;;3.30;;
61869;SDS011;47810;42.264;23.826;2024-02-26T12:44:35;4.75;;;2.97;;
61869;SDS011;47810;42.264;23.826;2024-02-26T12:47:04;6.82;;;2.70;;
61869;SDS011;47810;42.264;23.826;2024-02-26T12:49:46;7.45;;;3.70;;
61869;SDS011;47810;42.264;23.826;2024-02-26T12:57:24;5.03;;;2.55;;
61869;SDS011;47810;42.264;23.826;2024-02-26T13:02:24;6.20;;;3.10;;
61869;SDS011;47810;42.264;23.826;2024-02-26T13:05:00;4.10;;;2.38;;
61869;SDS011;47810;42.264;23.826;2024-02-26T13:10:06;6.35;;;2.95;;
61869;SDS011;47810;42.264;23.826;2024-02-26T13:19:08;11.02;;;3.38;;
61869;SDS011;47810;42.264;23.826;2024-02-26T13:32:55;14.30;;;7.05;;
61869;SDS011;47810;42.264;23.826;2024-02-26T13:35:27;6.63;;;2.80;;
61869;SDS011;47810;42.264;23.826;2024-02-26T13:43:07;6.78;;;4.95;;
61869;SDS011;47810;42.264;23.826;2024-02-26T13:45:40;9.18;;;5.20;;
61869;SDS011;47810;42.264;23.826;2024-02-26T13:48:12;11.73;;;3.80;;
61869;SDS011;47810;42.264;23.826;2024-02-26T13:50:41;6.32;;;3.60;;
61869;SDS011;47810;42.264;23.826;2024-02-26T13:53:13;6.70;;;4.78;;
61869;SDS011;47810;42.264;23.826;2024-02-26T13:55:48;12.15;;;5.78;;
61869;SDS011;47810;42.264;23.826;2024-02-26T13:58:16;13.48;;;6.75;;
61869;SDS011;47810;42.264;23.826;2024-02-26T14:00:55;12.25;;;5.28;;
61869;SDS011;47810;42.264;23.826;2024-02-26T14:10:56;6.80;;;3.10;;
61869;SDS011;47810;42.264;23.826;2024-02-26T14:13:32;5.70;;;3.17;;
61869;SDS011;47810;42.264;23.826;2024-02-26T14:15:59;6.40;;;3.92;;
61869;SDS011;47810;42.264;23.826;2024-02-26T14:18:28;8.23;;;4.53;;
61869;SDS011;47810;42.264;23.826;2024-02-26T14:21:02;8.20;;;3.92;;
61869;SDS011;47810;42.264;23.826;2024-02-26T14:23:41;4.50;;;3.17;;
61869;SDS011;47810;42.264;23.826;2024-02-26T14:26:14;6.55;;;3.60;;
61869;SDS011;47810;42.264;23.826;2024-02-26T14:28:42;10.13;;;5.25;;
61869;SDS011;47810;42.264;23.826;2024-02-26T14:46:32;6.72;;;4.15;;
61869;SDS011;47810;42.264;23.826;2024-02-26T14:49:08;6.72;;;4.13;;
61869;SDS011;47810;42.264;23.826;2024-02-26T14:51:36;7.10;;;3.97;;
61869;SDS011;47810;42.264;23.826;2024-02-26T14:56:45;7.50;;;6.22;;
61869;SDS011;47810;42.264;23.826;2024-02-26T14:59:12;12.70;;;6.05;;
61869;SDS011;47810;42.264;23.826;2024-02-26T15:01:52;8.45;;;4.65;;
61869;SDS011;47810;42.264;23.826;2024-02-26T15:04:22;11.07;;;5.72;;
61869;SDS011;47810;42.264;23.826;2024-02-26T15:09:27;9.40;;;5.18;;
61869;SDS011;47810;42.264;23.826;2024-02-26T15:20:10;17.70;;;10.48;;
61869;SDS011;47810;42.264;23.826;2024-02-26T15:37:40;9.32;;;6.18;;
61869;SDS011;47810;42.264;23.826;2024-02-26T15:45:40;12.68;;;8.10;;
61869;SDS011;47810;42.264;23.826;2024-02-26T15:48:06;11.95;;;6.30;;
61869;SDS011;47810;42.264;23.826;2024-02-26T15:59:39;11.02;;;4.57;;
61869;SDS011;47810;42.264;23.826;2024-02-26T16:02:05;11.32;;;6.22;;
61869;SDS011;47810;42.264;23.826;2024-02-26T16:04:40;6.45;;;3.92;;
61869;SDS011;47810;42.264;23.826;2024-02-26T16:10:25;9.15;;;5.88;;
61869;SDS011;47810;42.264;23.826;2024-02-26T16:12:57;10.13;;;6.47;;
61869;SDS011;47810;42.264;23.826;2024-02-26T16:17:57;12.52;;;6.78;;
61869;SDS011;47810;42.264;23.826;2024-02-26T16:20:30;15.77;;;8.32;;
61869;SDS011;47810;42.264;23.826;2024-02-26T16:22:57;11.73;;;7.38;;
61869;SDS011;47810;42.264;23.826;2024-02-26T16:25:30;11.25;;;6.45;;
61869;SDS011;47810;42.264;23.826;2024-02-26T16:28:10;12.85;;;7.55;;
61869;SDS011;47810;42.264;23.826;2024-02-26T16:30:39;12.40;;;7.15;;
61869;SDS011;47810;42.264;23.826;2024-02-26T16:38:17;13.05;;;6.25;;
61869;SDS011;47810;42.264;23.826;2024-02-26T16:40:45;13.23;;;6.85;;
61869;SDS011;47810;42.264;23.826;2024-02-26T16:43:25;7.78;;;5.00;;
61869;SDS011;47810;42.264;23.826;2024-02-26T16:46:07;15.85;;;7.53;;
61869;SDS011;47810;42.264;23.826;2024-02-26T17:02:38;14.85;;;6.97;;
61869;SDS011;47810;42.264;23.826;2024-02-26T17:05:04;16.35;;;9.70;;
61869;SDS011;47810;42.264;23.826;2024-02-26T17:07:40;16.95;;;10.27;;
61869;SDS011;47810;42.264;23.826;2024-02-26T17:10:11;19.67;;;12.05;;
61869;SDS011;47810;42.264;23.826;2024-02-26T17:12:46;23.45;;;13.13;;
61869;SDS011;47810;42.264;23.826;2024-02-26T17:15:13;26.05;;;14.50;;
61869;SDS011;47810;42.264;23.826;2024-02-26T17:20:23;23.45;;;13.65;;
61869;SDS011;47810;42.264;23.826;2024-02-26T17:22:51;26.95;;;14.32;;
61869;SDS011;47810;42.264;23.826;2024-02-26T17:25:18;28.77;;;14.63;;
61869;SDS011;47810;42.264;23.826;2024-02-26T17:33:24;20.13;;;12.05;;
61869;SDS011;47810;42.264;23.826;2024-02-26T17:35:57;17.50;;;9.95;;
61869;SDS011;47810;42.264;23.826;2024-02-26T17:44:06;19.08;;;13.75;;
61869;SDS011;47810;42.264;23.826;2024-02-26T17:46:34;65.35;;;32.17;;
61869;SDS011;47810;42.264;23.826;2024-02-26T17:48:59;25.33;;;15.30;;
61869;SDS011;47810;42.264;23.826;2024-02-26T17:54:24;21.52;;;10.95;;
61869;SDS011;47810;42.264;23.826;2024-02-26T17:57:02;13.90;;;8.85;;
61869;SDS011;47810;42.264;23.826;2024-02-26T17:59:36;16.60;;;8.85;;
61869;SDS011;47810;42.264;23.826;2024-02-26T18:02:02;15.27;;;9.80;;
61869;SDS011;47810;42.264;23.826;2024-02-26T18:04:28;22.70;;;12.43;;
61869;SDS011;47810;42.264;23.826;2024-02-26T18:07:08;19.08;;;10.63;;
61869;SDS011;47810;42.264;23.826;2024-02-26T18:09:44;46.53;;;21.13;;
61869;SDS011;47810;42.264;23.826;2024-02-26T18:12:10;28.73;;;13.80;;
61869;SDS011;47810;42.264;23.826;2024-02-26T18:14:42;13.25;;;8.85;;
61869;SDS011;47810;42.264;23.826;2024-02-26T18:17:11;21.02;;;11.23;;
61869;SDS011;47810;42.264;23.826;2024-02-26T18:19:53;31.02;;;14.65;;
61869;SDS011;47810;42.264;23.826;2024-02-26T18:22:26;30.48;;;12.55;;
61869;SDS011;47810;42.264;23.826;2024-02-26T18:24:59;31.38;;;13.95;;
61869;SDS011;47810;42.264;23.826;2024-02-26T18:27:27;20.42;;;11.85;;
61869;SDS011;47810;42.264;23.826;2024-02-26T18:29:55;19.70;;;10.80;;
61869;SDS011;47810;42.264;23.826;2024-02-26T18:35:04;21.75;;;10.80;;
61869;SDS011;47810;42.264;23.826;2024-02-26T18:40:08;22.63;;;11.13;;
61869;SDS011;47810;42.264;23.826;2024-02-26T18:42:46;17.85;;;9.50;;
61869;SDS011;47810;42.264;23.826;2024-02-26T18:45:20;12.10;;;9.02;;
61869;SDS011;47810;42.264;23.826;2024-02-26T18:47:49;14.52;;;6.97;;
61869;SDS011;47810;42.264;23.826;2024-02-26T18:50:27;11.82;;;6.35;;
61869;SDS011;47810;42.264;23.826;2024-02-26T18:52:57;8.00;;;5.90;;
61869;SDS011;47810;42.264;23.826;2024-02-26T18:55:29;10.73;;;6.70;;
61869;SDS011;47810;42.264;23.826;2024-02-26T19:00:41;10.73;;;6.40;;
61869;SDS011;47810;42.264;23.826;2024-02-26T19:03:07;10.23;;;6.72;;
61869;SDS011;47810;42.264;23.826;2024-02-26T19:05:40;9.75;;;6.93;;
61869;SDS011;47810;42.264;23.826;2024-02-26T19:08:06;12.13;;;6.32;;
61869;SDS011;47810;42.264;23.826;2024-02-26T19:13:18;10.95;;;6.65;;
61869;SDS011;47810;42.264;23.826;2024-02-26T19:15:44;11.93;;;7.35;;
61869;SDS011;47810;42.264;23.826;2024-02-26T19:18:15;16.40;;;7.20;;
61869;SDS011;47810;42.264;23.826;2024-02-26T19:20:41;9.77;;;6.75;;
61869;SDS011;47810;42.264;23.826;2024-02-26T19:23:07;11.88;;;6.57;;
61869;SDS011;47810;42.264;23.826;2024-02-26T19:25:33;10.70;;;6.95;;
61869;SDS011;47810;42.264;23.826;2024-02-26T19:27:59;14.38;;;7.45;;
61869;SDS011;47810;42.264;23.826;2024-02-26T19:30:25;13.95;;;6.50;;
61869;SDS011;47810;42.264;23.826;2024-02-26T19:32:52;8.07;;;4.47;;
61869;SDS011;47810;42.264;23.826;2024-02-26T19:35:17;8.82;;;5.15;;
61869;SDS011;47810;42.264;23.826;2024-02-26T19:37:44;8.88;;;5.10;;
61869;SDS011;47810;42.264;23.826;2024-02-26T19:40:10;8.75;;;4.63;;
61869;SDS011;47810;42.264;23.826;2024-02-26T19:42:41;6.78;;;3.40;;
61869;SDS011;47810;42.264;23.826;2024-02-26T19:45:07;5.70;;;3.38;;
61869;SDS011;47810;42.264;23.826;2024-02-26T19:47:35;9.52;;;4.60;;
61869;SDS011;47810;42.264;23.826;2024-02-26T19:52:35;11.60;;;3.95;;
61869;SDS011;47810;42.264;23.826;2024-02-26T19:55:02;9.77;;;4.63;;
61869;SDS011;47810;42.264;23.826;2024-02-26T19:57:29;9.50;;;5.15;;
61869;SDS011;47810;42.264;23.826;2024-02-26T19:59:57;9.43;;;4.85;;
61869;SDS011;47810;42.264;23.826;2024-02-26T20:02:23;9.80;;;4.78;;
61869;SDS011;47810;42.264;23.826;2024-02-26T20:09:51;7.97;;;4.88;;
61869;SDS011;47810;42.264;23.826;2024-02-26T20:12:17;12.48;;;6.65;;
61869;SDS011;47810;42.264;23.826;2024-02-26T20:17:13;7.72;;;4.28;;
61869;SDS011;47810;42.264;23.826;2024-02-26T20:19:42;11.82;;;4.90;;
61869;SDS011;47810;42.264;23.826;2024-02-26T20:24:40;14.18;;;7.75;;
61869;SDS011;47810;42.264;23.826;2024-02-26T20:27:06;13.98;;;7.35;;
61869;SDS011;47810;42.264;23.826;2024-02-26T20:29:41;17.23;;;8.07;;
61869;SDS011;47810;42.264;23.826;2024-02-26T20:32:08;14.90;;;7.93;;
61869;SDS011;47810;42.264;23.826;2024-02-26T20:34:34;9.02;;;6.28;;
61869;SDS011;47810;42.264;23.826;2024-02-26T20:37:12;8.85;;;6.75;;
61869;SDS011;47810;42.264;23.826;2024-02-26T20:39:40;7.57;;;4.32;;
61869;SDS011;47810;42.264;23.826;2024-02-26T20:42:13;11.25;;;5.22;;
61869;SDS011;47810;42.264;23.826;2024-02-26T20:44:40;9.38;;;4.70;;
61869;SDS011;47810;42.264;23.826;2024-02-26T20:49:37;3.53;;;2.67;;
61869;SDS011;47810;42.264;23.826;2024-02-26T20:52:11;6.35;;;4.03;;
61869;SDS011;47810;42.264;23.826;2024-02-26T20:54:38;5.88;;;3.40;;
61869;SDS011;47810;42.264;23.826;2024-02-26T20:57:04;8.90;;;3.55;;
61869;SDS011;47810;42.264;23.826;2024-02-26T20:59:30;6.70;;;4.07;;
61869;SDS011;47810;42.264;23.826;2024-02-26T21:02:00;7.60;;;5.43;;
61869;SDS011;47810;42.264;23.826;2024-02-26T21:04:28;9.23;;;5.40;;
61869;SDS011;47810;42.264;23.826;2024-02-26T21:06:56;6.32;;;4.25;;
61869;SDS011;47810;42.264;23.826;2024-02-26T21:09:22;9.40;;;5.13;;
61869;SDS011;47810;42.264;23.826;2024-02-26T21:11:49;7.05;;;4.85;;
61869;SDS011;47810;42.264;23.826;2024-02-26T21:14:14;8.60;;;5.57;;
61869;SDS011;47810;42.264;23.826;2024-02-26T21:16:42;10.45;;;5.43;;
61869;SDS011;47810;42.264;23.826;2024-02-26T21:19:10;11.07;;;5.55;;
61869;SDS011;47810;42.264;23.826;2024-02-26T21:21:44;8.98;;;4.93;;
61869;SDS011;47810;42.264;23.826;2024-02-26T21:24:12;10.07;;;4.75;;
61869;SDS011;47810;42.264;23.826;2024-02-26T21:26:38;9.25;;;5.50;;
61869;SDS011;47810;42.264;23.826;2024-02-26T21:29:04;12.65;;;7.32;;
61869;SDS011;47810;42.264;23.826;2024-02-26T21:31:40;10.50;;;6.40;;
61869;SDS011;47810;42.264;23.826;2024-02-26T21:34:07;13.90;;;7.43;;
61869;SDS011;47810;42.264;23.826;2024-02-26T21:36:33;11.30;;;7.10;;
61869;SDS011;47810;42.264;23.826;2024-02-26T21:39:04;11.70;;;7.18;;
61869;SDS011;47810;42.264;23.826;2024-02-26T21:41:32;13.45;;;7.35;;
61869;SDS011;47810;42.264;23.826;2024-02-26T21:43:57;14.38;;;8.68;;
61869;SDS011;47810;42.264;23.826;2024-02-26T21:46:35;14.93;;;8.18;;
61869;SDS011;47810;42.264;23.826;2024-02-26T21:49:04;16.33;;;9.73;;
61869;SDS011;47810;42.264;23.826;2024-02-26T21:51:30;19.75;;;10.45;;
61869;SDS011;47810;42.264;23.826;2024-02-26T21:53:56;17.63;;;10.00;;
61869;SDS011;47810;42.264;23.826;2024-02-26T21:56:22;15.90;;;9.93;;
61869;SDS011;47810;42.264;23.826;2024-02-26T21:58:50;20.02;;;10.13;;
61869;SDS011;47810;42.264;23.826;2024-02-26T22:01:23;17.27;;;10.48;;
61869;SDS011;47810;42.264;23.826;2024-02-26T22:06:22;16.00;;;9.48;;
61869;SDS011;47810;42.264;23.826;2024-02-26T22:08:47;15.57;;;8.57;;
61869;SDS011;47810;42.264;23.826;2024-02-26T22:11:14;14.55;;;8.23;;
61869;SDS011;47810;42.264;23.826;2024-02-26T22:13:40;8.95;;;6.20;;
61869;SDS011;47810;42.264;23.826;2024-02-26T22:16:05;10.07;;;6.22;;
61869;SDS011;47810;42.264;23.826;2024-02-26T22:18:31;9.38;;;5.38;;
61869;SDS011;47810;42.264;23.826;2024-02-26T22:20:57;13.43;;;5.65;;
61869;SDS011;47810;42.264;23.826;2024-02-26T22:23:24;11.07;;;6.95;;
61869;SDS011;47810;42.264;23.826;2024-02-26T22:25:50;15.40;;;9.07;;
61869;SDS011;47810;42.264;23.826;2024-02-26T22:28:16;17.88;;;8.40;;
61869;SDS011;47810;42.264;23.826;2024-02-26T22:33:32;11.27;;;5.60;;
61869;SDS011;47810;42.264;23.826;2024-02-26T22:36:00;8.68;;;5.20;;
61869;SDS011;47810;42.264;23.826;2024-02-26T22:38:27;4.70;;;3.50;;
61869;SDS011;47810;42.264;23.826;2024-02-26T22:40:54;6.72;;;4.53;;
61869;SDS011;47810;42.264;23.826;2024-02-26T22:45:52;8.30;;;5.60;;
61869;SDS011;47810;42.264;23.826;2024-02-26T22:48:20;13.98;;;7.50;;
61869;SDS011;47810;42.264;23.826;2024-02-26T22:53:16;21.55;;;9.35;;
61869;SDS011;47810;42.264;23.826;2024-02-26T22:55:41;22.63;;;10.57;;
61869;SDS011;47810;42.264;23.826;2024-02-26T22:58:13;18.15;;;10.13;;
61869;SDS011;47810;42.264;23.826;2024-02-26T23:00:40;10.63;;;6.57;;
61869;SDS011;47810;42.264;23.826;2024-02-26T23:03:06;13.05;;;6.97;;
61869;SDS011;47810;42.264;23.826;2024-02-26T23:05:34;11.38;;;6.35;;
61869;SDS011;47810;42.264;23.826;2024-02-26T23:08:01;10.15;;;5.22;;
61869;SDS011;47810;42.264;23.826;2024-02-26T23:10:27;10.07;;;6.03;;
61869;SDS011;47810;42.264;23.826;2024-02-26T23:15:22;14.68;;;9.02;;
61869;SDS011;47810;42.264;23.826;2024-02-26T23:17:48;11.40;;;6.90;;
61869;SDS011;47810;42.264;23.826;2024-02-26T23:22:46;10.63;;;6.53;;
61869;SDS011;47810;42.264;23.826;2024-02-26T23:25:14;11.15;;;8.48;;
61869;SDS011;47810;42.264;23.826;2024-02-26T23:27:42;9.77;;;5.90;;
61869;SDS011;47810;42.264;23.826;2024-02-26T23:30:09;9.30;;;5.47;;
61869;SDS011;47810;42.264;23.826;2024-02-26T23:32:36;12.45;;;5.22;;
61869;SDS011;47810;42.264;23.826;2024-02-26T23:35:02;8.27;;;5.10;;
61869;SDS011;47810;42.264;23.826;2024-02-26T23:37:29;9.48;;;4.90;;
61869;SDS011;47810;42.264;23.826;2024-02-26T23:39:55;14.13;;;7.05;;